createdAt,value
2017-04-07T00:00:06.411Z,101369
2017-04-07T00:01:06.498Z,101378
2017-04-07T00:02:07.013Z,101377
2017-04-07T00:03:06.786Z,101368
2017-04-07T00:04:07.128Z,101374
2017-04-07T00:05:06.804Z,101378
2017-04-07T00:06:06.713Z,101368
2017-04-07T00:07:06.709Z,101374
2017-04-07T00:08:06.795Z,101373
2017-04-07T00:09:07.163Z,101376
2017-04-07T00:10:07.487Z,101366
2017-04-07T00:11:07.013Z,101371
2017-04-07T00:12:07.565Z,101369
2017-04-07T00:13:07.543Z,101360
2017-04-07T00:14:07.544Z,101362
2017-04-07T00:15:07.856Z,101360
2017-04-07T00:16:07.601Z,101357
2017-04-07T00:17:07.689Z,101354
2017-04-07T00:18:07.156Z,101359
2017-04-07T00:19:07.789Z,101355
2017-04-07T00:20:07.864Z,101343
2017-04-07T00:21:07.623Z,101350
2017-04-07T00:22:07.461Z,101349
2017-04-07T00:23:07.459Z,101350
2017-04-07T00:24:08.061Z,101340
2017-04-07T00:25:08.133Z,101344
2017-04-07T00:26:08.143Z,101341
2017-04-07T00:27:07.908Z,101340
2017-04-07T00:28:08.267Z,101330
2017-04-07T00:29:07.744Z,101334
2017-04-07T00:30:07.815Z,101336
2017-04-07T00:31:07.899Z,101337
2017-04-07T00:32:07.979Z,101322
2017-04-07T00:33:08.862Z,101325
2017-04-07T00:34:08.095Z,101324
2017-04-07T00:35:08.688Z,101328
2017-04-07T00:36:08.148Z,101319
2017-04-07T00:37:08.142Z,101323
2017-04-07T00:38:08.212Z,101315
2017-04-07T00:39:08.499Z,101321
2017-04-07T00:40:08.333Z,101318
2017-04-07T00:41:08.426Z,101319
2017-04-07T00:42:09.006Z,101320
2017-04-07T00:43:08.983Z,101316
2017-04-07T00:44:08.553Z,101305
2017-04-07T00:45:08.744Z,101310
2017-04-07T00:46:08.696Z,101311
2017-04-07T00:47:09.196Z,101306
2017-04-07T00:48:08.747Z,101305
2017-04-07T00:49:09.248Z,101301
2017-04-07T00:50:08.862Z,101304
2017-04-07T00:51:09.209Z,101298
2017-04-07T00:52:08.924Z,101305
2017-04-07T00:53:08.987Z,101304
2017-04-07T00:54:09.523Z,101299
2017-04-07T00:55:09.556Z,101299
2017-04-07T00:56:09.608Z,101299
2017-04-07T00:57:09.969Z,101296
2017-04-07T00:58:09.171Z,101298
2017-04-07T00:59:09.754Z,101297
2017-04-07T01:00:09.824Z,101298
2017-04-07T01:01:09.358Z,101293
2017-04-07T01:02:09.908Z,101292
2017-04-07T01:03:10.193Z,101290
2017-04-07T01:04:10.064Z,101292
2017-04-07T01:05:10.193Z,101289
2017-04-07T01:06:10.131Z,101287
2017-04-07T01:07:09.796Z,101287
2017-04-07T01:08:10.270Z,101277
2017-04-07T01:09:10.539Z,101285
2017-04-07T01:10:09.824Z,101283
2017-04-07T01:11:09.863Z,101281
2017-04-07T01:12:10.643Z,101276
2017-04-07T01:13:09.961Z,101270
2017-04-07T01:14:09.992Z,101278
2017-04-07T01:15:10.367Z,101278
2017-04-07T01:16:10.651Z,101276
2017-04-07T01:17:10.079Z,101273
2017-04-07T01:18:10.218Z,101262
2017-04-07T01:19:10.332Z,101264
2017-04-07T01:20:10.359Z,101266
2017-04-07T01:21:11.308Z,101258
2017-04-07T01:22:11.056Z,101266
2017-04-07T01:23:10.522Z,101265
2017-04-07T01:24:10.548Z,101266
2017-04-07T01:25:11.175Z,101263
2017-04-07T01:26:10.649Z,101257
2017-04-07T01:27:10.976Z,101263
2017-04-07T01:28:11.286Z,101254
2017-04-07T01:29:11.282Z,101257
2017-04-07T01:30:11.391Z,101259
2017-04-07T01:31:11.506Z,101256
2017-04-07T01:32:10.965Z,101255
2017-04-07T01:33:11.312Z,101258
2017-04-07T01:34:11.021Z,101256
2017-04-07T01:35:11.581Z,101254
2017-04-07T01:36:11.120Z,101261
2017-04-07T01:37:11.196Z,101254
2017-04-07T01:38:11.206Z,101254
2017-04-07T01:39:11.478Z,101253
2017-04-07T01:40:11.808Z,101253
2017-04-07T01:41:11.855Z,101252
2017-04-07T01:42:11.374Z,101253
2017-04-07T01:43:11.983Z,101253
2017-04-07T01:44:12.035Z,101254
2017-04-07T01:45:11.809Z,101248
2017-04-07T01:46:11.627Z,101250
2017-04-07T01:47:12.236Z,101249
2017-04-07T01:48:11.787Z,101246
2017-04-07T01:49:12.367Z,101236
2017-04-07T01:50:11.836Z,101247
2017-04-07T01:51:12.167Z,101238
2017-04-07T01:52:12.475Z,101234
2017-04-07T01:53:11.926Z,101234
2017-04-07T01:54:12.546Z,101238
2017-04-07T01:55:12.582Z,101230
2017-04-07T01:56:12.160Z,101240
2017-04-07T01:57:12.513Z,101240
2017-04-07T01:58:12.770Z,101240
2017-04-07T01:59:12.855Z,101232
2017-04-07T02:00:12.902Z,101239
2017-04-07T02:01:12.957Z,101234
2017-04-07T02:02:13.031Z,101239
2017-04-07T02:03:13.323Z,101239
2017-04-07T02:04:12.593Z,101240
2017-04-07T02:05:13.376Z,101240
2017-04-07T02:06:13.435Z,101242
2017-04-07T02:07:12.747Z,101241
2017-04-07T02:08:12.836Z,101243
2017-04-07T02:09:13.104Z,101237
2017-04-07T02:10:13.404Z,101238
2017-04-07T02:11:12.952Z,101242
2017-04-07T02:12:12.982Z,101242
2017-04-07T02:13:13.044Z,101239
2017-04-07T02:14:13.130Z,101239
2017-04-07T02:15:13.473Z,101240
2017-04-07T02:16:13.204Z,101243
2017-04-07T02:17:13.853Z,101239
2017-04-07T02:18:13.362Z,101241
2017-04-07T02:19:13.405Z,101243
2017-04-07T02:20:14.081Z,101229
2017-04-07T02:21:14.442Z,101233
2017-04-07T02:22:13.685Z,101235
2017-04-07T02:23:13.776Z,101233
2017-04-07T02:24:13.791Z,101238
2017-04-07T02:25:14.381Z,101240
2017-04-07T02:26:13.839Z,101235
2017-04-07T02:27:14.865Z,101242
2017-04-07T02:28:14.047Z,101238
2017-04-07T02:29:14.690Z,101244
2017-04-07T02:30:14.280Z,101242
2017-04-07T02:31:14.780Z,101235
2017-04-07T02:32:14.331Z,101235
2017-04-07T02:33:15.229Z,101230
2017-04-07T02:34:14.936Z,101237
2017-04-07T02:35:14.423Z,101234
2017-04-07T02:36:14.988Z,101238
2017-04-07T02:37:14.598Z,101235
2017-04-07T02:38:14.639Z,101238
2017-04-07T02:39:15.471Z,101235
2017-04-07T02:40:15.240Z,101237
2017-04-07T02:41:15.330Z,101238
2017-04-07T02:42:15.377Z,101234
2017-04-07T02:43:14.850Z,101236
2017-04-07T02:44:14.866Z,101231
2017-04-07T02:45:15.264Z,101242
2017-04-07T02:46:14.943Z,101233
2017-04-07T02:47:15.604Z,101242
2017-04-07T02:48:15.109Z,101244
2017-04-07T02:49:15.662Z,101240
2017-04-07T02:50:15.740Z,101251
2017-04-07T02:51:15.543Z,101252
2017-04-07T02:52:15.267Z,101244
2017-04-07T02:53:15.857Z,101242
2017-04-07T02:54:15.945Z,101232
2017-04-07T02:55:16.022Z,101248
2017-04-07T02:56:16.090Z,101237
2017-04-07T02:57:15.924Z,101246
2017-04-07T02:58:16.129Z,101243
2017-04-07T02:59:15.680Z,101245
2017-04-07T03:00:16.295Z,101249
2017-04-07T03:01:16.391Z,101245
2017-04-07T03:02:16.436Z,101242
2017-04-07T03:03:16.706Z,101241
2017-04-07T03:04:16.478Z,101245
2017-04-07T03:05:15.968Z,101242
2017-04-07T03:06:16.652Z,101242
2017-04-07T03:07:16.764Z,101234
2017-04-07T03:08:16.647Z,101239
2017-04-07T03:09:16.965Z,101234
2017-04-07T03:10:16.731Z,101230
2017-04-07T03:11:16.238Z,101234
2017-04-07T03:12:16.850Z,101230
2017-04-07T03:13:16.355Z,101224
2017-04-07T03:14:16.425Z,101226
2017-04-07T03:15:17.333Z,101229
2017-04-07T03:16:17.103Z,101225
2017-04-07T03:17:17.121Z,101223
2017-04-07T03:18:16.595Z,101218
2017-04-07T03:19:16.668Z,101218
2017-04-07T03:20:16.719Z,101210
2017-04-07T03:21:17.039Z,101222
2017-04-07T03:22:17.301Z,101223
2017-04-07T03:23:16.868Z,101212
2017-04-07T03:24:17.380Z,101220
2017-04-07T03:25:17.450Z,101211
2017-04-07T03:26:17.514Z,101219
2017-04-07T03:27:17.889Z,101222
2017-04-07T03:28:17.102Z,101216
2017-04-07T03:29:17.166Z,101218
2017-04-07T03:30:17.211Z,101221
2017-04-07T03:31:17.833Z,101215
2017-04-07T03:32:17.851Z,101209
2017-04-07T03:33:17.672Z,101218
2017-04-07T03:34:17.989Z,101212
2017-04-07T03:35:17.502Z,101216
2017-04-07T03:36:17.481Z,101212
2017-04-07T03:37:17.550Z,101209
2017-04-07T03:38:18.091Z,101214
2017-04-07T03:39:18.422Z,101207
2017-04-07T03:40:18.218Z,101212
2017-04-07T03:41:18.172Z,101215
2017-04-07T03:42:17.718Z,101207
2017-04-07T03:43:18.263Z,101202
2017-04-07T03:44:17.775Z,101210
2017-04-07T03:45:18.642Z,101217
2017-04-07T03:46:18.425Z,101209
2017-04-07T03:47:18.436Z,101206
2017-04-07T03:48:18.390Z,101209
2017-04-07T03:49:18.441Z,101209
2017-04-07T03:50:18.471Z,101209
2017-04-07T03:51:18.322Z,101213
2017-04-07T03:52:18.026Z,101215
2017-04-07T03:53:18.653Z,101209
2017-04-07T03:54:18.183Z,101208
2017-04-07T03:55:18.723Z,101207
2017-04-07T03:56:18.706Z,101209
2017-04-07T03:57:19.116Z,101205
2017-04-07T03:58:18.217Z,101205
2017-04-07T03:59:18.803Z,101196
2017-04-07T04:00:18.227Z,101205
2017-04-07T04:01:18.827Z,101201
2017-04-07T04:02:18.833Z,101199
2017-04-07T04:03:19.176Z,101200
2017-04-07T04:04:18.905Z,101194
2017-04-07T04:05:18.961Z,101194
2017-04-07T04:06:19.019Z,101192
2017-04-07T04:07:18.517Z,101195
2017-04-07T04:08:18.556Z,101188
2017-04-07T04:09:19.360Z,101196
2017-04-07T04:10:18.559Z,101192
2017-04-07T04:11:18.573Z,101196
2017-04-07T04:12:19.175Z,101189
2017-04-07T04:13:18.715Z,101198
2017-04-07T04:14:19.302Z,101190
2017-04-07T04:15:19.586Z,101196
2017-04-07T04:16:18.922Z,101192
2017-04-07T04:17:18.965Z,101196
2017-04-07T04:18:18.918Z,101196
2017-04-07T04:19:18.954Z,101195
2017-04-07T04:20:19.553Z,101193
2017-04-07T04:21:19.908Z,101205
2017-04-07T04:22:19.132Z,101195
2017-04-07T04:23:19.784Z,101201
2017-04-07T04:24:19.835Z,101206
2017-04-07T04:25:19.326Z,101207
2017-04-07T04:26:19.879Z,101206
2017-04-07T04:27:20.312Z,101210
2017-04-07T04:28:19.984Z,101209
2017-04-07T04:29:19.469Z,101212
2017-04-07T04:30:19.495Z,101214
2017-04-07T04:31:19.497Z,101214
2017-04-07T04:32:19.583Z,101202
2017-04-07T04:33:19.927Z,101211
2017-04-07T04:34:20.178Z,101208
2017-04-07T04:35:19.644Z,101210
2017-04-07T04:36:20.289Z,101201
2017-04-07T04:37:19.765Z,101210
2017-04-07T04:38:19.735Z,101201
2017-04-07T04:39:19.819Z,101206
2017-04-07T04:40:19.853Z,101208
2017-04-07T04:41:20.472Z,101214
2017-04-07T04:42:20.464Z,101210
2017-04-07T04:43:20.005Z,101212
2017-04-07T04:44:20.547Z,101204
2017-04-07T04:45:20.126Z,101210
2017-04-07T04:46:20.696Z,101208
2017-04-07T04:47:20.270Z,101208
2017-04-07T04:48:20.780Z,101207
2017-04-07T04:49:20.227Z,101208
2017-04-07T04:50:20.279Z,101203
2017-04-07T04:51:20.325Z,101209
2017-04-07T04:52:20.929Z,101211
2017-04-07T04:53:20.385Z,101210
2017-04-07T04:54:20.948Z,101207
2017-04-07T04:55:21.308Z,101200
2017-04-07T04:56:20.580Z,101203
2017-04-07T04:57:20.622Z,101202
2017-04-07T04:58:20.601Z,101202
2017-04-07T04:59:21.114Z,101196
2017-04-07T05:00:20.647Z,101196
2017-04-07T05:01:20.719Z,101199
2017-04-07T05:02:20.712Z,101194
2017-04-07T05:03:20.779Z,101201
2017-04-07T05:04:21.379Z,101201
2017-04-07T05:05:21.491Z,101202
2017-04-07T05:06:20.969Z,101197
2017-04-07T05:07:20.961Z,101203
2017-04-07T05:08:21.139Z,101204
2017-04-07T05:09:21.570Z,101195
2017-04-07T05:10:21.104Z,101200
2017-04-07T05:11:21.769Z,101195
2017-04-07T05:12:21.808Z,101206
2017-04-07T05:13:21.783Z,101205
2017-04-07T05:14:21.348Z,101209
2017-04-07T05:15:21.980Z,101201
2017-04-07T05:16:21.515Z,101204
2017-04-07T05:17:21.519Z,101201
2017-04-07T05:18:22.068Z,101193
2017-04-07T05:19:21.662Z,101195
2017-04-07T05:20:22.233Z,101207
2017-04-07T05:21:22.276Z,101205
2017-04-07T05:22:21.820Z,101202
2017-04-07T05:23:21.847Z,101206
2017-04-07T05:24:22.469Z,101195
2017-04-07T05:25:22.000Z,101199
2017-04-07T05:26:22.034Z,101202
2017-04-07T05:27:22.079Z,101195
2017-04-07T05:28:22.939Z,101196
2017-04-07T05:29:22.769Z,101202
2017-04-07T05:30:22.809Z,101189
2017-04-07T05:31:22.818Z,101196
2017-04-07T05:32:22.349Z,101200
2017-04-07T05:33:22.972Z,101202
2017-04-07T05:34:22.506Z,101205
2017-04-07T05:35:23.088Z,101203
2017-04-07T05:36:22.555Z,101199
2017-04-07T05:37:22.592Z,101201
2017-04-07T05:38:23.237Z,101211
2017-04-07T05:39:23.338Z,101213
2017-04-07T05:40:22.866Z,101211
2017-04-07T05:41:23.393Z,101213
2017-04-07T05:42:22.876Z,101212
2017-04-07T05:43:23.507Z,101218
2017-04-07T05:44:23.485Z,101226
2017-04-07T05:45:23.560Z,101223
2017-04-07T05:46:23.598Z,101222
2017-04-07T05:47:23.098Z,101221
2017-04-07T05:48:23.791Z,101224
2017-04-07T05:49:23.831Z,101222
2017-04-07T05:50:23.593Z,101222
2017-04-07T05:51:23.948Z,101225
2017-04-07T05:52:23.372Z,101227
2017-04-07T05:53:23.945Z,101224
2017-04-07T05:54:24.005Z,101224
2017-04-07T05:55:24.099Z,101219
2017-04-07T05:56:24.194Z,101221
2017-04-07T05:57:23.672Z,101215
2017-04-07T05:58:23.789Z,101211
2017-04-07T05:59:23.765Z,101222
2017-04-07T06:00:24.384Z,101216
2017-04-07T06:01:24.457Z,101218
2017-04-07T06:02:24.419Z,101222
2017-04-07T06:03:24.481Z,101216
2017-04-07T06:04:24.586Z,101209
2017-04-07T06:05:24.685Z,101206
2017-04-07T06:06:24.280Z,101220
2017-04-07T06:07:24.821Z,101220
2017-04-07T06:08:24.836Z,101219
2017-04-07T06:09:24.832Z,101217
2017-04-07T06:10:24.830Z,101208
2017-04-07T06:11:24.358Z,101207
2017-04-07T06:12:24.473Z,101219
2017-04-07T06:13:24.533Z,101218
2017-04-07T06:14:26.069Z,101221
2017-04-07T06:15:25.136Z,101222
2017-04-07T06:16:25.144Z,101221
2017-04-07T06:17:25.187Z,101212
2017-04-07T06:18:24.690Z,101220
2017-04-07T06:19:25.172Z,101215
2017-04-07T06:20:25.261Z,101221
2017-04-07T06:21:26.604Z,101219
2017-04-07T06:22:24.895Z,101210
2017-04-07T06:23:25.019Z,101215
2017-04-07T06:24:24.980Z,101218
2017-04-07T06:25:25.634Z,101222
2017-04-07T06:26:25.593Z,101215
2017-04-07T06:27:25.606Z,101219
2017-04-07T06:28:25.109Z,101216
2017-04-07T06:29:25.751Z,101215
2017-04-07T06:30:25.198Z,101220
2017-04-07T06:31:25.757Z,101215
2017-04-07T06:32:25.749Z,101221
2017-04-07T06:33:25.853Z,101210
2017-04-07T06:34:26.410Z,101218
2017-04-07T06:35:25.875Z,101216
2017-04-07T06:36:25.375Z,101223
2017-04-07T06:37:25.470Z,101217
2017-04-07T06:38:25.458Z,101224
2017-04-07T06:39:26.119Z,101224
2017-04-07T06:40:25.663Z,101210
2017-04-07T06:41:25.672Z,101224
2017-04-07T06:42:25.749Z,101221
2017-04-07T06:43:25.706Z,101223
2017-04-07T06:44:26.252Z,101218
2017-04-07T06:45:26.259Z,101218
2017-04-07T06:46:26.367Z,101215
2017-04-07T06:47:25.813Z,101211
2017-04-07T06:48:26.374Z,101217
2017-04-07T06:49:27.152Z,101220
2017-04-07T06:50:25.957Z,101221
2017-04-07T06:51:26.614Z,101218
2017-04-07T06:52:28.032Z,101224
2017-04-07T06:53:26.674Z,101226
2017-04-07T06:54:26.283Z,101224
2017-04-07T06:55:26.276Z,101227
2017-04-07T06:56:26.418Z,101225
2017-04-07T06:57:26.458Z,101227
2017-04-07T06:58:26.491Z,101223
2017-04-07T06:59:27.104Z,101220
2017-04-07T07:00:26.593Z,101225
2017-04-07T07:01:27.147Z,101229
2017-04-07T07:02:26.663Z,101221
2017-04-07T07:03:26.750Z,101226
2017-04-07T07:04:27.453Z,101225
2017-04-07T07:05:27.690Z,101228
2017-04-07T07:06:27.354Z,101229
2017-04-07T07:07:28.168Z,101224
2017-04-07T07:08:27.499Z,101228
2017-04-07T07:09:26.940Z,101229
2017-04-07T07:10:26.934Z,101219
2017-04-07T07:11:28.130Z,101220
2017-04-07T07:12:27.559Z,101215
2017-04-07T07:13:27.008Z,101223
2017-04-07T07:14:27.530Z,101221
2017-04-07T07:15:27.025Z,101218
2017-04-07T07:16:27.008Z,101226
2017-04-07T07:17:27.576Z,101227
2017-04-07T07:18:28.290Z,101225
2017-04-07T07:19:27.726Z,101229
2017-04-07T07:20:27.772Z,101227
2017-04-07T07:21:27.891Z,101229
2017-04-07T07:22:27.839Z,101221
2017-04-07T07:23:28.569Z,101229
2017-04-07T07:24:27.461Z,101229
2017-04-07T07:25:28.040Z,101231
2017-04-07T07:26:27.422Z,101226
2017-04-07T07:27:27.547Z,101221
2017-04-07T07:28:28.050Z,101231
2017-04-07T07:29:28.595Z,101229
2017-04-07T07:30:28.144Z,101225
2017-04-07T07:31:30.066Z,101231
2017-04-07T07:32:27.761Z,101231
2017-04-07T07:33:27.713Z,101222
2017-04-07T07:34:28.293Z,101232
2017-04-07T07:35:28.331Z,101234
2017-04-07T07:36:28.359Z,101230
2017-04-07T07:37:27.845Z,101230
2017-04-07T07:38:31.261Z,101230
2017-04-07T07:39:28.601Z,101233
2017-04-07T07:40:28.541Z,101234
2017-04-07T07:41:28.814Z,101230
2017-04-07T07:42:28.145Z,101233
2017-04-07T07:43:29.002Z,101231
2017-04-07T07:44:29.449Z,101231
2017-04-07T07:45:28.354Z,101234
2017-04-07T07:46:28.411Z,101238
2017-04-07T07:47:29.702Z,101233
2017-04-07T07:48:28.507Z,101235
2017-04-07T07:49:29.351Z,101236
2017-04-07T07:50:29.203Z,101227
2017-04-07T07:51:29.199Z,101227
2017-04-07T07:52:29.267Z,101231
2017-04-07T07:53:29.423Z,101239
2017-04-07T07:54:29.542Z,101238
2017-04-07T07:55:29.305Z,101236
2017-04-07T07:56:29.320Z,101236
2017-04-07T07:57:28.890Z,101237
2017-04-07T07:58:28.832Z,101242
2017-04-07T07:59:28.881Z,101244
2017-04-07T08:00:28.914Z,101242
2017-04-07T08:01:28.934Z,101240
2017-04-07T08:02:28.936Z,101239
2017-04-07T08:03:29.683Z,101244
2017-04-07T08:04:29.024Z,101238
2017-04-07T08:05:28.980Z,101241
2017-04-07T08:06:29.713Z,101234
2017-04-07T08:07:29.144Z,101238
2017-04-07T08:08:30.201Z,101239
2017-04-07T08:09:29.707Z,101239
2017-04-07T08:10:29.263Z,101238
2017-04-07T08:11:29.264Z,101234
2017-04-07T08:12:29.850Z,101239
2017-04-07T08:13:30.035Z,101233
2017-04-07T08:14:29.947Z,101234
2017-04-07T08:15:30.100Z,101224
2017-04-07T08:16:30.060Z,101232
2017-04-07T08:17:30.154Z,101235
2017-04-07T08:18:30.139Z,101231
2017-04-07T08:19:30.124Z,101231
2017-04-07T08:20:29.655Z,101232
2017-04-07T08:21:30.182Z,101234
2017-04-07T08:22:30.539Z,101224
2017-04-07T08:23:30.475Z,101237
2017-04-07T08:24:30.473Z,101233
2017-04-07T08:25:29.931Z,101233
2017-04-07T08:26:32.847Z,101233
2017-04-07T08:27:30.059Z,101226
2017-04-07T08:28:30.109Z,101227
2017-04-07T08:29:30.731Z,101227
2017-04-07T08:30:30.279Z,101232
2017-04-07T08:31:30.428Z,101235
2017-04-07T08:32:31.001Z,101237
2017-04-07T08:33:30.368Z,101234
2017-04-07T08:34:30.974Z,101229
2017-04-07T08:35:31.101Z,101227
2017-04-07T08:36:32.127Z,101231
2017-04-07T08:37:31.144Z,101226
2017-04-07T08:38:31.102Z,101231
2017-04-07T08:39:31.236Z,101234
2017-04-07T08:40:30.771Z,101234
2017-04-07T08:41:31.315Z,101232
2017-04-07T08:42:31.339Z,101236
2017-04-07T08:43:31.333Z,101230
2017-04-07T08:44:31.388Z,101230
2017-04-07T08:45:30.901Z,101228
2017-04-07T08:46:31.506Z,101232
2017-04-07T08:47:32.130Z,101232
2017-04-07T08:48:31.537Z,101233
2017-04-07T08:49:31.101Z,101225
2017-04-07T08:50:31.631Z,101236
2017-04-07T08:51:31.143Z,101231
2017-04-07T08:52:32.328Z,101226
2017-04-07T08:53:32.453Z,101227
2017-04-07T08:54:31.842Z,101230
2017-04-07T08:55:32.332Z,101227
2017-04-07T08:56:31.978Z,101235
2017-04-07T08:57:33.560Z,101231
2017-04-07T08:58:32.074Z,101227
2017-04-07T08:59:32.085Z,101224
2017-04-07T09:00:32.188Z,101228
2017-04-07T09:01:31.669Z,101227
2017-04-07T09:02:32.732Z,101226
2017-04-07T09:03:31.690Z,101227
2017-04-07T09:04:32.227Z,101226
2017-04-07T09:05:32.319Z,101228
2017-04-07T09:06:33.943Z,101229
2017-04-07T09:07:32.465Z,101229
2017-04-07T09:08:33.054Z,101226
2017-04-07T09:09:32.459Z,101231
2017-04-07T09:10:33.485Z,101227
2017-04-07T09:11:32.661Z,101220
2017-04-07T09:12:32.137Z,101230
2017-04-07T09:13:32.052Z,101230
2017-04-07T09:14:33.606Z,101230
2017-04-07T09:15:32.776Z,101230
2017-04-07T09:16:32.851Z,101233
2017-04-07T09:17:32.457Z,101235
2017-04-07T09:18:32.874Z,101232
2017-04-07T09:19:33.087Z,101227
2017-04-07T09:20:33.527Z,101223
2017-04-07T09:21:33.722Z,101227
2017-04-07T09:22:33.138Z,101234
2017-04-07T09:23:33.058Z,101231
2017-04-07T09:24:33.067Z,101225
2017-04-07T09:25:33.187Z,101229
2017-04-07T09:26:33.870Z,101235
2017-04-07T09:27:32.704Z,101225
2017-04-07T09:28:33.430Z,101235
2017-04-07T09:29:34.010Z,101234
2017-04-07T09:30:33.452Z,101223
2017-04-07T09:31:33.019Z,101230
2017-04-07T09:32:34.737Z,101237
2017-04-07T09:33:33.107Z,101229
2017-04-07T09:34:33.641Z,101235
2017-04-07T09:35:33.736Z,101233
2017-04-07T09:36:33.724Z,101236
2017-04-07T09:37:33.837Z,101228
2017-04-07T09:38:33.805Z,101230
2017-04-07T09:39:33.619Z,101233
2017-04-07T09:40:33.326Z,101231
2017-04-07T09:41:34.083Z,101230
2017-04-07T09:42:33.974Z,101231
2017-04-07T09:43:33.567Z,101233
2017-04-07T09:44:34.028Z,101231
2017-04-07T09:45:33.611Z,101229
2017-04-07T09:46:33.601Z,101227
2017-04-07T09:47:33.651Z,101229
2017-04-07T09:48:34.262Z,101231
2017-04-07T09:49:33.709Z,101230
2017-04-07T09:50:34.308Z,101224
2017-04-07T09:51:36.401Z,101234
2017-04-07T09:52:34.403Z,101229
2017-04-07T09:53:35.757Z,101232
2017-04-07T09:54:34.601Z,101231
2017-04-07T09:55:34.528Z,101220
2017-04-07T09:56:33.966Z,101226
2017-04-07T09:57:34.484Z,101223
2017-04-07T09:58:34.572Z,101218
2017-04-07T09:59:34.760Z,101222
2017-04-07T10:00:34.714Z,101223
2017-04-07T10:01:34.505Z,101218
2017-04-07T10:02:34.809Z,101221
2017-04-07T10:03:34.862Z,101218
2017-04-07T10:04:34.917Z,101213
2017-04-07T10:05:36.273Z,101212
2017-04-07T10:06:35.070Z,101215
2017-04-07T10:07:35.180Z,101215
2017-04-07T10:08:34.607Z,101213
2017-04-07T10:09:34.687Z,101213
2017-04-07T10:10:35.296Z,101214
2017-04-07T10:11:35.306Z,101211
2017-04-07T10:12:34.840Z,101214
2017-04-07T10:13:35.442Z,101213
2017-04-07T10:14:34.937Z,101205
2017-04-07T10:15:35.490Z,101209
2017-04-07T10:16:35.004Z,101210
2017-04-07T10:17:35.078Z,101209
2017-04-07T10:18:35.642Z,101213
2017-04-07T10:19:35.733Z,101214
2017-04-07T10:20:36.213Z,101208
2017-04-07T10:21:35.217Z,101210
2017-04-07T10:22:35.749Z,101210
2017-04-07T10:23:36.500Z,101204
2017-04-07T10:24:35.310Z,101206
2017-04-07T10:25:35.882Z,101210
2017-04-07T10:26:35.903Z,101206
2017-04-07T10:27:35.894Z,101203
2017-04-07T10:28:35.943Z,101206
2017-04-07T10:29:35.465Z,101196
2017-04-07T10:30:35.835Z,101205
2017-04-07T10:31:38.131Z,101207
2017-04-07T10:32:36.227Z,101200
2017-04-07T10:33:35.755Z,101200
2017-04-07T10:34:35.848Z,101192
2017-04-07T10:35:35.826Z,101193
2017-04-07T10:36:36.416Z,101200
2017-04-07T10:37:36.435Z,101202
2017-04-07T10:38:36.388Z,101205
2017-04-07T10:39:37.768Z,101204
2017-04-07T10:40:36.054Z,101202
2017-04-07T10:41:36.433Z,101202
2017-04-07T10:42:36.196Z,101197
2017-04-07T10:43:36.685Z,101198
2017-04-07T10:44:36.759Z,101205
2017-04-07T10:45:36.281Z,101197
2017-04-07T10:47:36.278Z,101196
2017-04-07T10:48:36.279Z,101199
2017-04-07T10:49:36.336Z,101202
2017-04-07T10:50:36.987Z,101201
2017-04-07T10:51:36.514Z,101204
2017-04-07T10:52:36.646Z,101199
2017-04-07T10:53:37.158Z,101205
2017-04-07T10:54:36.653Z,101205
2017-04-07T10:55:36.773Z,101207
2017-04-07T10:56:37.336Z,101208
2017-04-07T10:57:37.417Z,101202
2017-04-07T10:58:37.459Z,101206
2017-04-07T10:59:37.021Z,101203
2017-04-07T11:00:37.049Z,101206
2017-04-07T11:01:37.106Z,101204
2017-04-07T11:02:37.167Z,101207
2017-04-07T11:03:37.739Z,101207
2017-04-07T11:04:38.548Z,101214
2017-04-07T11:05:37.897Z,101204
2017-04-07T11:06:37.958Z,101209
2017-04-07T11:07:37.944Z,101204
2017-04-07T11:08:37.692Z,101207
2017-04-07T11:09:37.485Z,101204
2017-04-07T11:10:38.149Z,101207
2017-04-07T11:11:38.202Z,101198
2017-04-07T11:12:38.208Z,101202
2017-04-07T11:13:38.597Z,101205
2017-04-07T11:14:38.306Z,101207
2017-04-07T11:15:37.821Z,101197
2017-04-07T11:16:38.613Z,101201
2017-04-07T11:17:37.962Z,101204
2017-04-07T11:18:38.003Z,101206
2017-04-07T11:19:38.120Z,101196
2017-04-07T11:20:38.124Z,101205
2017-04-07T11:21:38.715Z,101207
2017-04-07T11:22:38.162Z,101209
2017-04-07T11:23:38.802Z,101201
2017-04-07T11:24:38.843Z,101209
2017-04-07T11:25:38.347Z,101208
2017-04-07T11:26:38.330Z,101209
2017-04-07T11:27:38.902Z,101206
2017-04-07T11:28:39.003Z,101213
2017-04-07T11:29:38.499Z,101210
2017-04-07T11:30:38.909Z,101204
2017-04-07T11:31:39.162Z,101202
2017-04-07T11:32:39.212Z,101204
2017-04-07T11:33:40.014Z,101208
2017-04-07T11:34:38.806Z,101208
2017-04-07T11:35:38.818Z,101209
2017-04-07T11:36:39.118Z,101203
2017-04-07T11:37:39.443Z,101213
2017-04-07T11:38:39.520Z,101211
2017-04-07T11:39:39.564Z,101206
2017-04-07T11:40:38.997Z,101205
2017-04-07T11:41:39.105Z,101211
2017-04-07T11:42:39.434Z,101211
2017-04-07T11:43:39.176Z,101208
2017-04-07T11:44:39.294Z,101210
2017-04-07T11:45:40.355Z,101207
2017-04-07T11:46:40.612Z,101214
2017-04-07T11:47:39.510Z,101209
2017-04-07T11:48:39.861Z,101211
2017-04-07T11:49:39.618Z,101208
2017-04-07T11:50:40.244Z,101200
2017-04-07T11:51:39.754Z,101207
2017-04-07T11:52:39.863Z,101206
2017-04-07T11:53:40.400Z,101204
2017-04-07T11:54:40.242Z,101203
2017-04-07T11:55:40.560Z,101193
2017-04-07T11:56:40.004Z,101206
2017-04-07T11:57:40.042Z,101200
2017-04-07T11:58:40.598Z,101182
2017-04-07T11:59:40.116Z,101189
2017-04-07T12:00:41.101Z,101199
2017-04-07T12:01:40.783Z,101195
2017-04-07T12:02:40.374Z,101193
2017-04-07T12:03:40.952Z,101187
2017-04-07T12:04:41.019Z,101192
2017-04-07T12:05:41.720Z,101194
2017-04-07T12:06:41.471Z,101183
2017-04-07T12:07:41.222Z,101187
2017-04-07T12:08:41.136Z,101183
2017-04-07T12:09:41.830Z,101180
2017-04-07T12:10:41.908Z,101182
2017-04-07T12:11:41.267Z,101183
2017-04-07T12:12:42.148Z,101184
2017-04-07T12:13:42.017Z,101186
2017-04-07T12:14:40.855Z,101186
2017-04-07T12:15:40.999Z,101178
2017-04-07T12:16:40.995Z,101186
2017-04-07T12:17:41.069Z,101173
2017-04-07T12:18:42.807Z,101176
2017-04-07T12:19:41.732Z,101181
2017-04-07T12:20:42.314Z,101170
2017-04-07T12:21:41.332Z,101173
2017-04-07T12:22:42.183Z,101169
2017-04-07T12:23:41.470Z,101170
2017-04-07T12:24:41.772Z,101176
2017-04-07T12:25:42.096Z,101177
2017-04-07T12:26:42.899Z,101170
2017-04-07T12:27:41.813Z,101175
2017-04-07T12:28:42.352Z,101174
2017-04-07T12:29:41.867Z,101166